Time;durP1;ratioP1;P1;durP2;ratioP2;P2;SDS_P1;SDS_P2;PMS_P1;PMS_P2;Temp;Humidity;BMP_temperature;BMP_pressure;BME280_temperature;BME280_humidity;BME280_pressure;Samples;Min_cycle;Max_cycle;Signal;HPM_P1;HPM_P2
2024/01/06 00:02:16;;;;;;;;;;;;;;;3.28;100.00;99817.84;4860693;29;20491;-75
2024/01/06 00:04:41;;;;;;;;;;;;;;;3.27;100.00;99816.19;4859755;29;21680;-76
2024/01/06 00:07:06;;;;;;;;;;;;;;;3.29;100.00;99824.84;4861099;29;19935;-76
2024/01/06 00:09:34;;;;;;;;;;;;;;;3.31;100.00;99828.16;4860063;29;20062;-76
2024/01/06 00:11:59;;;;;;;;;;;;;;;3.27;100.00;99826.84;4855309;29;20289;-76
2024/01/06 00:14:25;;;;;;;;;;;;;;;3.27;100.00;99837.47;4860569;29;19920;-76
2024/01/06 00:16:50;;;;;;;;;;;;;;;3.25;100.00;99835.00;4933270;23;19932;-76
2024/01/06 00:19:17;;;;;;;;;;;;;;;3.23;100.00;99846.78;4860329;29;20022;-76
2024/01/06 00:21:42;;;;;;;;;;;;;;;3.26;100.00;99836.66;4860902;29;19964;-76
2024/01/06 00:24:10;;;;;;;;;;;;;;;3.25;100.00;99845.63;4859824;29;20006;-76
2024/01/06 00:26:36;;;;;;;;;;;;;;;3.25;100.00;99850.97;4867843;29;19924;-76
2024/01/06 00:29:01;;;;;;;;;;;;;;;3.17;100.00;99843.84;4847971;29;20270;-76
2024/01/06 00:31:55;;;;;;;;;;;;;;;3.13;100.00;99839.88;4893113;23;19927;-75
2024/01/06 00:34:51;;;;;;;;;;;;;;;3.12;100.00;99845.34;4894361;29;19979;-75
2024/01/06 00:37:20;;;;;;;;;;;;;;;3.10;100.00;99850.84;4896105;29;19923;-75
2024/01/06 00:39:56;;;;;;;;;;;;;;;3.12;100.00;99850.66;4896760;29;19931;-76
2024/01/06 00:42:40;;;;;;;;;;;;;;;3.06;100.00;99849.53;4897231;29;20014;-76
2024/01/06 00:45:12;;;;;;;;;;;;;;;3.03;100.00;99855.19;4897512;29;20292;-75
2024/01/06 00:47:44;;;;;;;;;;;;;;;3.00;100.00;99853.72;4897335;29;19924;-76
2024/01/06 00:50:12;;;;;;;;;;;;;;;2.96;100.00;99860.38;4898107;29;19969;-76
2024/01/06 00:52:38;;;;;;;;;;;;;;;2.98;100.00;99871.66;4897991;29;20486;-76
2024/01/06 00:55:35;;;;;;;;;;;;;;;2.97;100.00;99871.84;4896643;29;19928;-75
2024/01/06 00:58:11;;;;;;;;;;;;;;;2.93;100.00;99867.88;4898776;29;19924;-76
2024/01/06 01:00:52;;;;;;;;;;;;;;;2.96;100.00;99872.84;4895601;29;20101;-75
2024/01/06 01:03:29;;;;;;;;;;;;;;;2.97;100.00;99875.31;4901854;29;19970;-75
2024/01/06 01:06:08;;;;;;;;;;;;;;;2.97;100.00;99875.31;4898274;29;20019;-76
2024/01/06 01:08:45;;;;;;;;;;;;;;;2.95;100.00;99877.31;4879396;29;19986;-75
2024/01/06 01:11:22;;;;;;;;;;;;;;;2.95;100.00;99879.16;4896412;29;19930;-75
2024/01/06 01:14:03;;;;;;;;;;;;;;;3.01;100.00;99886.44;4897246;29;19930;-75
2024/01/06 01:16:32;;;;;;;;;;;;;;;3.00;100.00;99890.94;4896259;29;20016;-75
2024/01/06 01:19:01;;;;;;;;;;;;;;;3.02;100.00;99898.72;4886537;29;19924;-74
2024/01/06 01:21:47;;;;;;;;;;;;;;;2.99;100.00;99893.78;4897859;29;19923;-76
2024/01/06 01:24:27;;;;;;;;;;;;;;;3.00;100.00;99904.22;4895747;29;20435;-76
2024/01/06 01:26:52;;;;;;;;;;;;;;;3.00;100.00;99911.41;4893843;29;19927;-76
2024/01/06 01:29:30;;;;;;;;;;;;;;;2.96;100.00;99905.56;4896685;29;19923;-76
2024/01/06 01:35:37;;;;;;;;;;;;;;;2.91;100.00;99913.25;4910413;29;19950;-76
2024/01/06 01:38:43;;;;;;;;;;;;;;;2.91;100.00;99912.41;4898283;29;19927;-75
2024/01/06 01:41:15;;;;;;;;;;;;;;;2.87;100.00;99918.06;4898370;29;19923;-75
2024/01/06 01:43:59;;;;;;;;;;;;;;;2.86;100.00;99927.03;4894802;29;19979;-76
2024/01/06 01:46:27;;;;;;;;;;;;;;;2.77;100.00;99932.53;4898043;29;19923;-77
2024/01/06 01:49:09;;;;;;;;;;;;;;;2.78;100.00;99940.34;4899262;29;19923;-76
2024/01/06 01:51:34;;;;;;;;;;;;;;;2.76;100.00;99931.69;4900197;29;19927;-76
2024/01/06 01:54:02;;;;;;;;;;;;;;;2.70;100.00;99932.38;4900250;29;19934;-76
2024/01/06 01:56:49;;;;;;;;;;;;;;;2.68;100.00;99937.88;4882105;29;19931;-76
2024/01/06 01:59:37;;;;;;;;;;;;;;;2.71;100.00;99940.19;4953712;23;20268;-76
2024/01/06 02:02:20;;;;;;;;;;;;;;;2.59;100.00;99936.19;4910583;29;19911;-76
2024/01/06 02:04:46;;;;;;;;;;;;;;;2.60;100.00;99942.34;4935567;23;19927;-75
2024/01/06 02:07:30;;;;;;;;;;;;;;;2.61;100.00;99944.84;4902788;29;20276;-75
2024/01/06 02:10:09;;;;;;;;;;;;;;;2.60;100.00;99956.47;5264879;23;19931;-76
2024/01/06 02:12:34;;;;;;;;;;;;;;;2.52;100.00;99951.16;4904529;29;19931;-76
2024/01/06 02:18:16;;;;;;;;;;;;;;;2.48;100.00;99963.94;4892192;29;19923;-76
2024/01/06 02:20:56;;;;;;;;;;;;;;;2.45;100.00;99963.44;4885586;29;19971;-76
2024/01/06 02:23:40;;;;;;;;;;;;;;;2.41;100.00;99962.94;4902847;29;19927;-76
2024/01/06 02:29:28;;;;;;;;;;;;;;;2.42;100.00;99969.94;4809467;29;19925;-76
2024/01/06 02:31:58;;;;;;;;;;;;;;;2.36;100.00;99975.88;4815041;29;19925;-74
2024/01/06 02:34:34;;;;;;;;;;;;;;;2.27;100.00;99978.56;4825638;29;19913;-75
2024/01/06 02:37:18;;;;;;;;;;;;;;;2.29;100.00;99985.53;4820386;29;19951;-76
2024/01/06 02:39:44;;;;;;;;;;;;;;;2.21;100.00;99991.63;4807621;29;19929;-76
2024/01/06 02:42:21;;;;;;;;;;;;;;;2.15;100.00;99990.47;4809662;29;19953;-76
2024/01/06 02:44:47;;;;;;;;;;;;;;;2.09;100.00;99999.91;4798437;29;19929;-76
2024/01/06 02:47:18;;;;;;;;;;;;;;;2.06;100.00;100010.03;4799968;29;19925;-76
2024/01/06 02:49:55;;;;;;;;;;;;;;;2.04;100.00;100012.03;4855755;29;20010;-75
2024/01/06 02:52:35;;;;;;;;;;;;;;;2.05;100.00;100024.31;4849705;29;19924;-75
2024/01/06 02:55:18;;;;;;;;;;;;;;;2.05;100.00;100024.31;4857216;29;20069;-75
2024/01/06 02:57:46;;;;;;;;;;;;;;;2.01;100.00;100028.25;4860232;29;20427;-75
2024/01/06 03:00:26;;;;;;;;;;;;;;;2.00;100.00;100019.47;4858074;29;20002;-76
2024/01/06 03:03:03;;;;;;;;;;;;;;;2.01;100.00;100028.25;4869838;29;19982;-75
2024/01/06 03:05:36;;;;;;;;;;;;;;;1.97;100.00;100033.88;4898556;29;19923;-74
2024/01/06 03:08:18;;;;;;;;;;;;;;;2.00;100.00;100038.06;4896965;29;19926;-74
2024/01/06 03:10:58;;;;;;;;;;;;;;;2.00;100.00;100040.72;4898440;29;20034;-74
2024/01/06 03:13:33;;;;;;;;;;;;;;;1.93;100.00;100042.34;4899105;29;19927;-74
2024/01/06 03:16:01;;;;;;;;;;;;;;;1.94;100.00;100044.81;4893127;29;20011;-74
2024/01/06 03:18:26;;;;;;;;;;;;;;;1.92;100.00;100048.63;4894298;29;20337;-73
2024/01/06 03:20:54;;;;;;;;;;;;;;;1.92;100.00;100046.84;4898034;29;20372;-74
2024/01/06 03:23:19;;;;;;;;;;;;;;;1.88;100.00;100048.13;4897485;29;20268;-74
2024/01/06 03:25:50;;;;;;;;;;;;;;;1.85;100.00;100045.81;4898466;29;19923;-74
2024/01/06 03:28:16;;;;;;;;;;;;;;;1.83;100.00;100052.28;4897898;29;19997;-74
2024/01/06 03:30:41;;;;;;;;;;;;;;;1.88;100.00;100042.84;4897751;29;19923;-74
2024/01/06 03:33:06;;;;;;;;;;;;;;;1.84;100.00;100052.09;4898585;29;19946;-73
2024/01/06 03:35:31;;;;;;;;;;;;;;;1.83;100.00;100050.44;4896275;29;20039;-74
2024/01/06 03:37:56;;;;;;;;;;;;;;;1.82;100.00;100056.72;4897448;29;20038;-74
2024/01/06 03:40:22;;;;;;;;;;;;;;;1.82;100.00;100062.03;4881042;29;19971;-74
2024/01/06 03:42:48;;;;;;;;;;;;;;;1.84;100.00;100056.59;4897766;29;19923;-74
2024/01/06 03:45:13;;;;;;;;;;;;;;;1.82;100.00;100056.72;4879560;29;20006;-74
2024/01/06 03:47:39;;;;;;;;;;;;;;;1.80;100.00;100064.00;4897466;29;20440;-74
2024/01/06 03:50:04;;;;;;;;;;;;;;;1.82;100.00;100067.34;4890836;29;20420;-74
2024/01/06 03:52:29;;;;;;;;;;;;;;;1.76;100.00;100068.81;4898733;29;19952;-77
2024/01/06 03:54:54;;;;;;;;;;;;;;;1.74;100.00;100069.97;4895634;29;20295;-77
2024/01/06 03:57:20;;;;;;;;;;;;;;;1.72;100.00;100075.44;4896718;29;20295;-77
2024/01/06 03:59:45;;;;;;;;;;;;;;;1.69;100.00;100083.69;4896948;29;19923;-77
2024/01/06 04:02:10;;;;;;;;;;;;;;;1.70;100.00;100084.53;4897760;29;19924;-76
2024/01/06 04:04:35;;;;;;;;;;;;;;;1.66;100.00;100079.53;4896754;29;19927;-77
2024/01/06 04:07:01;;;;;;;;;;;;;;;1.71;100.00;100083.56;4897512;29;19934;-78
2024/01/06 04:09:26;;;;;;;;;;;;;;;1.63;100.00;100079.03;4896958;29;19919;-77
2024/01/06 04:11:52;;;;;;;;;;;;;;;1.63;100.00;100079.84;4897224;29;19923;-77
2024/01/06 04:14:17;;;;;;;;;;;;;;;1.65;100.00;100087.69;4902933;23;19936;-77
2024/01/06 04:16:42;;;;;;;;;;;;;;;1.64;100.00;100088.66;4897236;29;19927;-78
2024/01/06 04:19:08;;;;;;;;;;;;;;;1.62;100.00;100083.50;4879973;29;19928;-78
2024/01/06 04:21:33;;;;;;;;;;;;;;;1.60;100.00;100090.78;4887685;29;20031;-78
2024/01/06 04:23:59;;;;;;;;;;;;;;;1.60;100.00;100088.13;4892600;29;19924;-77
2024/01/06 04:26:24;;;;;;;;;;;;;;;1.55;100.00;100086.94;4897326;29;19920;-77
2024/01/06 04:28:49;;;;;;;;;;;;;;;1.55;100.00;100090.44;4884435;29;20014;-77
2024/01/06 04:31:14;;;;;;;;;;;;;;;1.57;100.00;100101.72;4897730;29;20372;-76
2024/01/06 04:33:40;;;;;;;;;;;;;;;1.50;100.00;100108.63;4897001;29;19946;-77
2024/01/06 04:36:06;;;;;;;;;;;;;;;1.46;100.00;100104.63;4898053;29;19931;-77
2024/01/06 04:38:31;;;;;;;;;;;;;;;1.47;100.00;100106.28;4896817;29;20628;-78
2024/01/06 04:41:00;;;;;;;;;;;;;;;1.40;100.00;100123.84;4898675;29;19919;-77
2024/01/06 04:43:25;;;;;;;;;;;;;;;1.38;100.00;100125.81;4896985;29;19927;-77
2024/01/06 04:45:50;;;;;;;;;;;;;;;1.36;100.00;100129.44;4895623;29;20716;-77
2024/01/06 04:48:15;;;;;;;;;;;;;;;1.36;100.00;100134.75;4897714;29;20292;-77
2024/01/06 04:50:40;;;;;;;;;;;;;;;1.37;100.00;100138.22;4897307;29;20311;-77
2024/01/06 04:53:06;;;;;;;;;;;;;;;1.34;100.00;100134.06;4896139;29;19971;-78
2024/01/06 04:55:34;;;;;;;;;;;;;;;1.32;100.00;100136.03;4898360;29;19931;-77
2024/01/06 04:58:11;;;;;;;;;;;;;;;1.32;100.00;100137.88;4912491;23;19935;-77
2024/01/06 05:00:36;;;;;;;;;;;;;;;1.30;100.00;100135.34;4904139;29;19959;-76
2024/01/06 05:03:18;;;;;;;;;;;;;;;1.30;100.00;100138.00;4904727;29;20326;-77
2024/01/06 05:06:01;;;;;;;;;;;;;;;1.33;100.00;100144.81;4886878;29;19927;-77
2024/01/06 05:08:44;;;;;;;;;;;;;;;1.33;100.00;100150.97;4887712;29;19920;-77
2024/01/06 05:11:10;;;;;;;;;;;;;;;1.31;100.00;100154.75;4885778;29;19967;-77
2024/01/06 05:13:41;;;;;;;;;;;;;;;1.30;100.00;100153.09;4896689;29;19924;-77
2024/01/06 05:16:21;;;;;;;;;;;;;;;1.30;100.00;100161.88;4895225;29;19983;-77
2024/01/06 05:21:30;;;;;;;;;;;;;;;1.28;100.00;100166.50;4868193;29;19948;-77
2024/01/06 05:24:05;;;;;;;;;;;;;;;1.23;100.00;100174.09;4892254;29;20288;-76
2024/01/06 05:26:45;;;;;;;;;;;;;;;1.26;100.00;100167.63;4893627;29;19926;-77
2024/01/06 05:29:36;;;;;;;;;;;;;;;1.25;100.00;100171.28;4884415;29;19923;-77
2024/01/06 05:32:38;;;;;;;;;;;;;;;1.20;100.00;100169.91;4920064;29;19912;-77
2024/01/06 05:35:21;;;;;;;;;;;;;;;1.16;100.00;100173.84;4900177;29;19966;-77
2024/01/06 05:37:47;;;;;;;;;;;;;;;1.17;100.00;100183.47;4900414;29;19927;-77
2024/01/06 05:40:12;;;;;;;;;;;;;;;1.15;100.00;100181.97;4905948;29;19927;-77
2024/01/06 05:42:38;;;;;;;;;;;;;;;1.13;100.00;100183.91;4891898;29;19919;-76
2024/01/06 05:45:03;;;;;;;;;;;;;;;1.11;100.00;100184.09;4894762;29;19966;-76
2024/01/06 05:47:28;;;;;;;;;;;;;;;1.09;100.00;100185.19;4900986;29;19965;-77
2024/01/06 05:49:54;;;;;;;;;;;;;;;1.07;100.00;100185.38;4899907;29;20379;-77
2024/01/06 05:52:19;;;;;;;;;;;;;;;1.06;100.00;100189.00;4896393;29;19927;-74
2024/01/06 05:54:44;;;;;;;;;;;;;;;1.09;100.00;100193.16;4901133;29;19998;-78
2024/01/06 05:57:09;;;;;;;;;;;;;;;1.09;100.00;100194.00;4893859;29;19982;-78
2024/01/06 05:59:35;;;;;;;;;;;;;;;1.05;100.00;100204.09;4918875;29;19938;-77
2024/01/06 06:02:00;;;;;;;;;;;;;;;1.01;100.00;100208.00;4919602;29;19924;-76
2024/01/06 06:04:25;;;;;;;;;;;;;;;1.00;100.00;100206.34;4901275;29;19926;-78
2024/01/06 06:06:52;;;;;;;;;;;;;;;0.96;100.00;100214.75;4897542;29;19924;-77
2024/01/06 06:09:17;;;;;;;;;;;;;;;0.94;100.00;100217.53;4901506;29;19930;-74
2024/01/06 06:11:43;;;;;;;;;;;;;;;0.90;100.00;100227.63;4892588;29;20311;-76
2024/01/06 06:14:08;;;;;;;;;;;;;;;0.87;100.00;100222.59;4899176;29;19969;-76
2024/01/06 06:16:33;;;;;;;;;;;;;;;0.89;100.00;100238.34;4901154;29;19923;-76
2024/01/06 06:18:58;;;;;;;;;;;;;;;0.88;100.00;100244.66;4899506;29;20299;-76
2024/01/06 06:21:24;;;;;;;;;;;;;;;0.84;100.00;100249.41;4899774;29;20265;-76
2024/01/06 06:23:49;;;;;;;;;;;;;;;0.83;100.00;100258.31;4893664;29;19988;-76
2024/01/06 06:26:14;;;;;;;;;;;;;;;0.81;100.00;100255.00;4900856;29;20381;-76
2024/01/06 06:28:40;;;;;;;;;;;;;;;0.80;100.00;100252.50;4914574;29;19927;-76
2024/01/06 06:31:05;;;;;;;;;;;;;;;0.82;100.00;100258.47;4920890;29;19942;-76
2024/01/06 06:33:30;;;;;;;;;;;;;;;0.75;100.00;100263.53;4907080;29;19923;-77
2024/01/06 06:35:57;;;;;;;;;;;;;;;0.74;100.00;100262.69;4908520;29;19998;-76
2024/01/06 06:38:22;;;;;;;;;;;;;;;0.73;100.00;100265.50;4893888;29;19970;-76
2024/01/06 06:40:47;;;;;;;;;;;;;;;0.69;100.00;100272.91;4899897;29;20376;-76
2024/01/06 06:43:13;;;;;;;;;;;;;;;0.68;100.00;100279.19;4899978;29;19920;-76
2024/01/06 06:45:38;;;;;;;;;;;;;;;0.67;100.00;100289.94;4899247;29;19957;-76
2024/01/06 06:48:04;;;;;;;;;;;;;;;0.68;100.00;100286.28;4899485;29;19927;-76
2024/01/06 06:50:29;;;;;;;;;;;;;;;0.67;100.00;100292.56;4897802;29;19928;-76
2024/01/06 06:52:54;;;;;;;;;;;;;;;0.63;100.00;100296.50;4896547;29;19923;-76
2024/01/06 06:55:22;;;;;;;;;;;;;;;0.64;100.00;100296.34;4899316;29;19923;-76
2024/01/06 06:57:48;;;;;;;;;;;;;;;0.70;100.00;100308.19;4897754;29;19927;-76
2024/01/06 07:00:14;;;;;;;;;;;;;;;0.69;100.00;100312.66;4897943;29;19924;-76
2024/01/06 07:02:40;;;;;;;;;;;;;;;0.72;100.00;100319.47;4899133;29;19947;-76
2024/01/06 07:05:08;;;;;;;;;;;;;;;0.68;100.00;100318.94;4887082;29;20280;-75
2024/01/06 07:07:33;;;;;;;;;;;;;;;0.67;100.00;100325.22;4880660;29;19975;-76
2024/01/06 07:10:00;;;;;;;;;;;;;;;0.70;100.00;100334.69;4898751;29;19921;-76
2024/01/06 07:12:27;;;;;;;;;;;;;;;0.60;100.00;100329.41;4897496;29;19962;-76
2024/01/06 07:14:52;;;;;;;;;;;;;;;0.62;100.00;100334.59;4890070;29;19938;-76
2024/01/06 07:17:17;;;;;;;;;;;;;;;0.62;100.00;100335.41;4894395;29;19919;-76
2024/01/06 07:19:43;;;;;;;;;;;;;;;0.67;100.00;100345.56;4898442;29;19920;-76
2024/01/06 07:22:08;;;;;;;;;;;;;;;0.60;100.00;100353.25;4896174;29;20341;-76
2024/01/06 07:24:33;;;;;;;;;;;;;;;0.58;100.00;100357.84;4896170;29;19925;-75
2024/01/06 07:27:01;;;;;;;;;;;;;;;0.53;100.00;100358.28;4897892;29;19923;-75
2024/01/06 07:29:26;;;;;;;;;;;;;;;0.48;100.00;100360.53;4892218;29;20006;-75
2024/01/06 07:31:51;;;;;;;;;;;;;;;0.51;100.00;100359.44;4892210;29;20397;-77
2024/01/06 07:34:17;;;;;;;;;;;;;;;0.48;100.00;100359.69;4898151;29;19930;-77
2024/01/06 07:36:42;;;;;;;;;;;;;;;0.48;100.00;100362.34;4897431;29;19923;-77
2024/01/06 07:39:07;;;;;;;;;;;;;;;0.48;100.00;100375.59;4896346;29;20320;-74
2024/01/06 07:41:32;;;;;;;;;;;;;;;0.52;100.00;100372.50;4897546;29;19919;-74
2024/01/06 07:43:58;;;;;;;;;;;;;;;0.47;100.00;100381.88;4885186;29;19942;-74
2024/01/06 07:46:23;;;;;;;;;;;;;;;0.44;100.00;100378.53;4898245;29;19919;-76
2024/01/06 07:48:48;;;;;;;;;;;;;;;0.44;100.00;100383.81;4884622;29;19923;-76
2024/01/06 07:51:14;;;;;;;;;;;;;;;0.44;100.00;100388.28;4895464;29;19972;-77
2024/01/06 07:53:39;;;;;;;;;;;;;;;0.39;100.00;100404.59;4894702;29;19932;-77
2024/01/06 07:56:08;;;;;;;;;;;;;;;0.42;100.00;100392.91;4896676;29;19927;-77
2024/01/06 07:58:33;;;;;;;;;;;;;;;0.35;100.00;100400.56;4895413;29;19946;-77
2024/01/06 08:00:59;;;;;;;;;;;;;;;0.38;100.00;100410.84;4885872;29;20280;-76
2024/01/06 08:03:24;;;;;;;;;;;;;;;0.36;100.00;100412.81;4895605;29;19980;-77
2024/01/06 08:05:51;;;;;;;;;;;;;;;0.35;100.00;100418.25;4896007;29;19919;-75
2024/01/06 08:08:18;;;;;;;;;;;;;;;0.36;100.00;100417.28;4893310;29;19934;-75
2024/01/06 08:10:43;;;;;;;;;;;;;;;0.30;100.00;100430.09;4895204;29;19979;-76
2024/01/06 08:13:12;;;;;;;;;;;;;;;0.31;100.00;100425.66;4893544;29;19932;-75
2024/01/06 08:15:38;;;;;;;;;;;;;;;0.26;100.00;100430.53;4895434;29;19967;-76
2024/01/06 08:18:03;;;;;;;;;;;;;;;0.24;100.00;100437.75;4895743;29;20014;-76
2024/01/06 08:20:29;;;;;;;;;;;;;;;0.24;100.00;100451.00;4896999;29;19919;-75
2024/01/06 08:22:54;;;;;;;;;;;;;;;0.25;100.00;100450.03;4897044;29;20356;-76
2024/01/06 08:25:20;;;;;;;;;;;;;;;0.25;100.00;100447.38;4895795;29;19924;-77
2024/01/06 08:27:45;;;;;;;;;;;;;;;0.26;100.00;100446.41;4894908;29;19930;-76
2024/01/06 08:30:10;;;;;;;;;;;;;;;0.27;100.00;100445.44;4885163;29;20041;-76
2024/01/06 08:32:36;;;;;;;;;;;;;;;0.29;100.00;100451.44;4874506;29;19963;-76
2024/01/06 08:35:01;;;;;;;;;;;;;;;0.28;100.00;100453.22;4888389;29;20152;-76
2024/01/06 08:37:26;;;;;;;;;;;;;;;0.24;100.00;100451.00;4895066;29;20396;-77
2024/01/06 08:39:54;;;;;;;;;;;;;;;0.29;100.00;100456.72;4895183;29;19930;-77
2024/01/06 08:42:19;;;;;;;;;;;;;;;0.31;100.00;100465.38;4894747;29;19924;-76
2024/01/06 08:44:45;;;;;;;;;;;;;;;0.27;100.00;100469.25;4895591;29;19929;-75
2024/01/06 08:47:10;;;;;;;;;;;;;;;0.25;100.00;100469.41;4894913;29;20380;-75
2024/01/06 08:49:36;;;;;;;;;;;;;;;0.21;100.00;100464.50;4895985;29;19924;-75
2024/01/06 08:52:01;;;;;;;;;;;;;;;0.26;100.00;100472.88;4899165;29;19932;-76
2024/01/06 08:54:27;;;;;;;;;;;;;;;0.23;100.00;100473.16;4900189;29;19923;-75
2024/01/06 08:56:52;;;;;;;;;;;;;;;0.22;100.00;100474.13;4907441;29;19934;-74
2024/01/06 08:59:20;;;;;;;;;;;;;;;0.23;100.00;100483.75;4913983;29;19951;-74
2024/01/06 09:01:45;;;;;;;;;;;;;;;0.18;100.00;100486.81;4897033;29;20016;-73
2024/01/06 09:04:12;;;;;;;;;;;;;;;0.20;100.00;100494.59;4895720;29;20012;-72
2024/01/06 09:06:37;;;;;;;;;;;;;;;0.22;100.00;100501.44;4895911;29;20432;-73
2024/01/06 09:09:03;;;;;;;;;;;;;;;0.22;100.00;100497.94;4910080;29;19927;-73
2024/01/06 09:11:28;;;;;;;;;;;;;;;0.23;100.00;100507.56;4895779;29;20006;-73
2024/01/06 09:13:53;;;;;;;;;;;;;;;0.20;100.00;100507.84;4893723;29;19970;-72
2024/01/06 09:16:18;;;;;;;;;;;;;;;0.20;100.00;100521.06;4895721;29;19963;-74
2024/01/06 09:18:44;;;;;;;;;;;;;;;0.20;100.00;100518.44;4893744;29;20379;-73
2024/01/06 09:21:09;;;;;;;;;;;;;;;0.15;100.00;100532.09;4893803;29;19930;-74
2024/01/06 09:23:35;;;;;;;;;;;;;;;0.18;100.00;100536.28;4895426;29;20415;-74
2024/01/06 09:26:00;;;;;;;;;;;;;;;0.17;100.00;100537.25;4903164;29;19924;-74
2024/01/06 09:28:25;;;;;;;;;;;;;;;0.19;100.00;100545.88;4914763;28;20038;-73
2024/01/06 09:30:52;;;;;;;;;;;;;;;0.07;100.00;100548.66;4883635;29;19919;-73
2024/01/06 09:33:17;;;;;;;;;;;;;;;0.08;100.00;100549.50;4895756;29;19948;-74
2024/01/06 09:35:43;;;;;;;;;;;;;;;0.09;100.00;100554.66;4892251;29;20428;-73
2024/01/06 09:38:08;;;;;;;;;;;;;;;0.06;100.00;100564.69;4883987;29;19924;-73
2024/01/06 09:40:34;;;;;;;;;;;;;;;0.04;100.00;100567.44;4888805;29;19942;-73
2024/01/06 09:42:59;;;;;;;;;;;;;;;0.01;100.00;100570.34;4896858;29;19923;-74
2024/01/06 09:45:24;;;;;;;;;;;;;;;-0.02;100.00;100573.28;4900228;29;19923;-75
2024/01/06 09:47:50;;;;;;;;;;;;;;;-0.02;100.00;100581.22;4889769;29;20030;-74
2024/01/06 09:50:24;;;;;;;;;;;;;;;-0.01;100.00;100577.63;4906254;29;19926;-74
2024/01/06 09:52:53;;;;;;;;;;;;;;;0.00;100.00;100589.88;4906657;29;19968;-73
2024/01/06 09:55:18;;;;;;;;;;;;;;;-0.03;100.00;100593.59;4903691;29;19959;-73
2024/01/06 09:57:44;;;;;;;;;;;;;;;-0.02;100.00;100592.63;4902528;29;20261;-74
2024/01/06 10:00:10;;;;;;;;;;;;;;;-0.02;100.00;100597.09;4898714;29;19971;-73
2024/01/06 10:02:35;;;;;;;;;;;;;;;-0.02;100.00;100597.94;4895096;29;19923;-74
2024/01/06 10:05:00;;;;;;;;;;;;;;;-0.02;100.00;100602.41;4896877;29;20391;-74
2024/01/06 10:07:26;;;;;;;;;;;;;;;-0.02;100.00;100599.75;4893286;29;20226;-73
2024/01/06 10:09:51;;;;;;;;;;;;;;;0.05;100.00;100608.00;4888108;29;19927;-73
2024/01/06 10:12:17;;;;;;;;;;;;;;;0.03;100.00;100608.09;4892654;29;19974;-74
2024/01/06 10:14:42;;;;;;;;;;;;;;;-0.02;100.00;100613.00;4898091;29;19986;-73
2024/01/06 10:17:07;;;;;;;;;;;;;;;0.01;100.00;100606.56;4886477;29;19971;-74
2024/01/06 10:19:38;;;;;;;;;;;;;;;-0.02;100.00;100613.00;4907484;29;19924;-78
2024/01/06 10:22:03;;;;;;;;;;;;;;;-0.07;100.00;100613.38;4890684;29;19934;-76
2024/01/06 10:24:36;;;;;;;;;;;;;;;-0.04;100.00;100614.94;4891875;29;19919;-76
2024/01/06 10:27:02;;;;;;;;;;;;;;;-0.05;100.00;100613.25;4908668;29;19923;-75
2024/01/06 10:29:28;;;;;;;;;;;;;;;0.01;100.00;100615.34;4900366;29;19984;-75
2024/01/06 10:42:00;;;;;;;;;;;;;;;-0.03;100.00;100624.53;4893789;29;19948;-75
2024/01/06 10:50:57;;;;;;;;;;;;;;;0.02;100.00;100621.47;4836280;29;19928;-76
2024/01/06 10:54:04;;;;;;;;;;;;;;;0.03;100.00;100625.81;4825137;29;19931;-76
2024/01/06 10:59:55;;;;;;;;;;;;;;;0.04;100.00;100635.44;4773193;30;19936;-76
2024/01/06 11:02:20;;;;;;;;;;;;;;;0.01;100.00;100635.69;4799148;29;19940;-75
2024/01/06 11:05:07;;;;;;;;;;;;;;;-0.01;100.00;100646.41;4818880;29;20035;-75
2024/01/06 11:10:52;;;;;;;;;;;;;;;0.05;100.00;100650.34;5287917;23;20299;-77
2024/01/06 11:13:24;;;;;;;;;;;;;;;-0.05;100.00;100653.75;4882037;29;19927;-77
2024/01/06 11:16:06;;;;;;;;;;;;;;;-0.06;100.00;100653.91;4895328;29;19924;-76
2024/01/06 11:18:35;;;;;;;;;;;;;;;-0.10;100.00;100660.44;4895409;29;20368;-77
2024/01/06 11:27:44;;;;;;;;;;;;;;;-0.08;100.00;100651.38;4895864;29;20308;-76
2024/01/06 11:36:24;;;;;;;;;;;;;;;-0.01;100.00;100663.13;4859648;29;20402;-77
2024/01/06 11:38:52;;;;;;;;;;;;;;;0.03;100.00;100663.69;4877953;29;20290;-77
2024/01/06 11:41:36;;;;;;;;;;;;;;;0.02;100.00;100667.31;4896024;29;19920;-76
2024/01/06 12:16:38;;;;;;;;;;;;;;;0.05;100.00;100661.75;4886829;29;20131;-78
2024/01/06 12:19:06;;;;;;;;;;;;;;;0.03;100.00;100668.16;4879024;29;20555;-77
2024/01/06 12:21:46;;;;;;;;;;;;;;;-0.06;100.00;100670.59;4895780;29;19954;-78
2024/01/06 12:24:30;;;;;;;;;;;;;;;0.00;100.00;100663.97;4885013;29;19959;-77
2024/01/06 12:27:01;;;;;;;;;;;;;;;-0.06;100.00;100665.31;4894384;29;19986;-77
2024/01/06 12:29:32;;;;;;;;;;;;;;;-0.02;100.00;100665.91;4884443;29;19962;-78
2024/01/06 12:32:00;;;;;;;;;;;;;;;0.04;100.00;100660.06;4894439;29;20349;-77
2024/01/06 12:35:10;;;;;;;;;;;;;;;0.02;100.00;100664.66;4896011;29;19920;-78
2024/01/06 12:37:35;;;;;;;;;;;;;;;0.00;100.00;100661.31;4952470;23;19953;-78
2024/01/06 12:40:02;;;;;;;;;;;;;;;0.02;100.00;100662.00;4894889;29;20392;-77
2024/01/06 12:42:29;;;;;;;;;;;;;;;0.04;100.00;100660.06;4899290;29;20011;-75
2024/01/06 12:44:56;;;;;;;;;;;;;;;0.07;100.00;100662.47;4888905;29;20412;-77
2024/01/06 12:47:30;;;;;;;;;;;;;;;0.06;100.00;100660.78;4900753;29;19920;-78
2024/01/06 12:49:55;;;;;;;;;;;;;;;0.05;100.00;100677.63;4869722;29;19942;-77
2024/01/06 12:52:21;;;;;;;;;;;;;;;0.04;100.00;100675.94;4887544;29;20350;-76
2024/01/06 12:54:49;;;;;;;;;;;;;;;0.06;100.00;100674.00;4893143;29;20026;-77
2024/01/06 12:57:14;;;;;;;;;;;;;;;0.09;100.00;100679.03;4896926;29;19920;-78
2024/01/06 12:59:40;;;;;;;;;;;;;;;0.09;100.00;100684.34;4897014;29;20384;-77
2024/01/06 13:02:21;;;;;;;;;;;;;;;0.09;100.00;100684.34;4874301;29;19931;-77
2024/01/06 13:04:46;;;;;;;;;;;;;;;0.07;100.00;100694.22;4877509;29;20399;-77
2024/01/06 13:07:18;;;;;;;;;;;;;;;0.03;100.00;100679.56;4880262;29;19920;-77
2024/01/06 13:09:53;;;;;;;;;;;;;;;0.00;100.00;100685.16;4887988;29;19920;-77
2024/01/06 13:12:18;;;;;;;;;;;;;;;0.05;100.00;100690.84;4879276;29;20026;-77
2024/01/06 13:14:52;;;;;;;;;;;;;;;0.00;100.00;100690.44;4883547;29;19959;-76
2024/01/06 13:17:33;;;;;;;;;;;;;;;-0.07;100.00;100689.28;4908176;29;19986;-78
2024/01/06 13:19:58;;;;;;;;;;;;;;;-0.05;100.00;100697.94;4910749;29;19964;-77
2024/01/06 13:22:26;;;;;;;;;;;;;;;-0.05;100.00;100698.75;4877407;29;19928;-77
2024/01/06 13:25:08;;;;;;;;;;;;;;;-0.06;100.00;100702.38;4888418;29;19931;-77
2024/01/06 13:27:46;;;;;;;;;;;;;;;-0.03;100.00;100717.16;4893198;29;19920;-75
2024/01/06 13:30:12;;;;;;;;;;;;;;;-0.04;100.00;100712.84;4896182;29;19924;-75
2024/01/06 13:32:38;;;;;;;;;;;;;;;-0.05;100.00;100708.50;4895793;29;19927;-77
2024/01/06 13:35:05;;;;;;;;;;;;;;;-0.06;100.00;100702.38;4874574;29;20399;-77
2024/01/06 13:37:33;;;;;;;;;;;;;;;-0.02;100.00;100718.84;4897161;29;20260;-77
2024/01/06 13:39:58;;;;;;;;;;;;;;;-0.03;100.00;100723.28;4894475;29;19924;-77
2024/01/06 13:42:26;;;;;;;;;;;;;;;0.02;100.00;100722.88;4894405;29;19961;-77
2024/01/06 13:44:52;;;;;;;;;;;;;;;0.02;100.00;100719.41;4893293;29;19924;-77
2024/01/06 13:47:17;;;;;;;;;;;;;;;-0.01;100.00;100725.81;4911004;29;19956;-77
2024/01/06 13:49:42;;;;;;;;;;;;;;;-0.02;100.00;100732.06;4920676;29;19954;-78
2024/01/06 13:52:07;;;;;;;;;;;;;;;-0.01;100.00;100733.75;4899204;29;19927;-77
2024/01/06 13:54:33;;;;;;;;;;;;;;;-0.03;100.00;100727.75;4894729;29;19935;-77
2024/01/06 13:56:58;;;;;;;;;;;;;;;-0.08;100.00;100732.59;4889020;29;19928;-77
2024/01/06 13:59:25;;;;;;;;;;;;;;;-0.12;100.00;100739.94;4897313;29;19924;-78
2024/01/06 14:01:50;;;;;;;;;;;;;;;-0.12;100.00;100736.44;4898294;29;20023;-77
2024/01/06 14:04:16;;;;;;;;;;;;;;;-0.12;100.00;100736.44;4898831;29;19959;-76
2024/01/06 14:06:42;;;;;;;;;;;;;;;-0.15;100.00;100745.50;4898642;29;20372;-74
2024/01/06 14:09:08;;;;;;;;;;;;;;;-0.14;100.00;100736.59;4894347;29;19969;-76
2024/01/06 14:11:34;;;;;;;;;;;;;;;-0.20;100.00;100743.25;4899312;29;19931;-76